Menu Horizontal
luftaufnahme
Willkommen auf der Webseite der privaten Wetterstation -- Taufkirchen an der Pram -- 48°24'29,52" Nord  <>  13°32'13,20" Ost

Wetterdaten - Samstag, 20.07.2024 - Taufkirchen an der Pram     336 m über NN
Wetterdaten: aktuell Samstag, 20.07.2024 15:30
Datum Zeit Temp. A. Feuchte A. Luftdruck Regen Wind Sonnenschein UV Solar Windchill Empfang
20.07.2024 15:30 24,8 °C 71 % 1011,3 hPa 0,0 l/m² 0,0 km/h 10 min 2,2 UV-I 248 W/m² 24,8 °C 100 %
20.07.2024 15:20 24,8 °C 73 % 1011,4 hPa 0,0 l/m² 0,0 km/h 10 min 2,5 UV-I 281 W/m² 24,8 °C 100 %
20.07.2024 15:10 24,4 °C 74 % 1011,5 hPa 0,0 l/m² 0,0 km/h 10 min 2,7 UV-I 298 W/m² 24,4 °C 100 %
20.07.2024 15:00 24,0 °C 75 % 1011,8 hPa 0,0 l/m² 0,0 km/h 10 min 2,8 UV-I 298 W/m² 24,0 °C 100 %
20.07.2024 14:50 23,9 °C 75 % 1011,8 hPa 0,0 l/m² 0,0 km/h 10 min 2,7 UV-I 274 W/m² 23,9 °C 100 %
20.07.2024 14:40 23,7 °C 74 % 1011,9 hPa 0,0 l/m² 1,0 km/h 10 min 2,9 UV-I 291 W/m² 23,7 °C 100 %
20.07.2024 14:30 23,7 °C 74 % 1012,0 hPa 0,0 l/m² 1,5 km/h 10 min 3,1 UV-I 325 W/m² 23,7 °C 100 %
20.07.2024 14:20 23,7 °C 77 % 1012,0 hPa 0,0 l/m² 0,1 km/h 10 min 3,3 UV-I 354 W/m² 23,7 °C 100 %
20.07.2024 14:10 23,4 °C 78 % 1012,1 hPa 0,0 l/m² 0,1 km/h 10 min 3,5 UV-I 372 W/m² 23,4 °C 99 %
20.07.2024 14:00 23,4 °C 77 % 1012,2 hPa 0,0 l/m² 1,2 km/h 10 min 3,4 UV-I 371 W/m² 23,4 °C 100 %
20.07.2024 13:50 23,4 °C 80 % 1012,1 hPa 0,0 l/m² 0,0 km/h 20 min 3,3 UV-I 361 W/m² 23,4 °C 100 %
20.07.2024 13:30 22,8 °C 83 % 1012,3 hPa 0,0 l/m² 0,4 km/h 10 min 3,0 UV-I 307 W/m² 22,8 °C 100 %
20.07.2024 13:20 22,7 °C 84 % 1012,3 hPa 0,0 l/m² 0,0 km/h 10 min 3,1 UV-I 321 W/m² 22,7 °C 100 %
20.07.2024 13:10 22,1 °C 85 % 1012,4 hPa 0,0 l/m² 0,0 km/h 10 min 3,4 UV-I 330 W/m² 22,1 °C 100 %
20.07.2024 13:00 22,1 °C 85 % 1012,3 hPa 0,0 l/m² 0,0 km/h 10 min 3,7 UV-I 366 W/m² 22,1 °C 100 %
20.07.2024 12:50 21,9 °C 88 % 1012,5 hPa 0,0 l/m² 0,0 km/h 10 min 4,0 UV-I 404 W/m² 21,9 °C 100 %
20.07.2024 12:40 21,6 °C 89 % 1012,5 hPa 0,0 l/m² 0,0 km/h 20 min 3,8 UV-I 375 W/m² 21,6 °C 100 %
20.07.2024 12:20 21,0 °C 92 % 1012,8 hPa 0,0 l/m² 0,0 km/h 10 min 3,3 UV-I 337 W/m² 21,0 °C 99 %
20.07.2024 12:10 20,8 °C 93 % 1012,9 hPa 0,0 l/m² 0,1 km/h 10 min 3,5 UV-I 355 W/m² 20,8 °C 99 %
20.07.2024 12:00 20,5 °C 93 % 1013,0 hPa 0,0 l/m² 0,0 km/h 10 min 3,0 UV-I 312 W/m² 20,5 °C 100 %
20.07.2024 11:50 20,3 °C 93 % 1013,0 hPa 0,0 l/m² 0,0 km/h 20 min 2,7 UV-I 279 W/m² 20,3 °C 99 %
20.07.2024 11:30 19,8 °C 94 % 1013,2 hPa 0,0 l/m² 0,0 km/h 10 min 2,0 UV-I 211 W/m² 19,8 °C 97 %
20.07.2024 11:20 19,8 °C 94 % 1013,1 hPa 0,0 l/m² 0,0 km/h 10 min 1,9 UV-I 204 W/m² 19,8 °C 99 %
20.07.2024 11:10 19,6 °C 94 % 1013,2 hPa 0,0 l/m² 0,1 km/h 10 min 1,9 UV-I 208 W/m² 19,6 °C 99 %
20.07.2024 11:00 19,3 °C 94 % 1013,2 hPa 0,0 l/m² 0,8 km/h 10 min 1,8 UV-I 200 W/m² 19,3 °C 99 %
20.07.2024 10:50 19,3 °C 94 % 1013,2 hPa 0,0 l/m² 0,0 km/h 10 min 1,7 UV-I 184 W/m² 19,3 °C 100 %
20.07.2024 10:40 19,3 °C 95 % 1013,1 hPa 0,0 l/m² 0,0 km/h 10 min 1,6 UV-I 170 W/m² 19,3 °C 98 %
20.07.2024 10:30 19,3 °C 95 % 1012,9 hPa 0,0 l/m² 0,0 km/h 10 min 1,4 UV-I 154 W/m² 19,3 °C 100 %
20.07.2024 10:20 19,4 °C 95 % 1012,9 hPa 0,0 l/m² 0,0 km/h 10 min 1,3 UV-I 137 W/m² 19,4 °C 99 %
20.07.2024 10:10 19,2 °C 95 % 1012,8 hPa 0,0 l/m² 0,0 km/h 10 min 1,1 UV-I 126 W/m² 19,2 °C 100 %
20.07.2024 10:00 19,1 °C 95 % 1012,8 hPa 0,2 l/m² 0,0 km/h 20 min 1,1 UV-I 122 W/m² 19,1 °C 100 %
20.07.2024 09:40 18,9 °C 95 % 1013,0 hPa 0,0 l/m² 0,0 km/h 10 min 1,0 UV-I 122 W/m² 18,9 °C 100 %
20.07.2024 09:30 18,8 °C 95 % 1013,0 hPa 0,0 l/m² 0,0 km/h 10 min 1,0 UV-I 125 W/m² 18,8 °C 100 %
20.07.2024 09:20 18,7 °C 96 % 1013,0 hPa 0,0 l/m² 0,0 km/h 10 min 0,9 UV-I 116 W/m² 18,7 °C 100 %
20.07.2024 09:10 18,6 °C 95 % 1012,9 hPa 1,0 l/m² 0,0 km/h 0 min 0,7 UV-I 87 W/m² 18,6 °C 100 %
20.07.2024 08:40 18,3 °C 95 % 1012,9 hPa 0,2 l/m² 0,0 km/h 0 min 0,0 UV-I 47 W/m² 18,3 °C 100 %
20.07.2024 08:30 18,2 °C 95 % 1012,9 hPa 0,4 l/m² 0,0 km/h 0 min 0,0 UV-I 37 W/m² 18,2 °C 100 %
20.07.2024 08:20 18,2 °C 95 % 1013,0 hPa 0,4 l/m² 0,0 km/h 0 min 0,0 UV-I 28 W/m² 18,2 °C 100 %
20.07.2024 08:10 18,2 °C 95 % 1013,0 hPa 0,4 l/m² 0,0 km/h 0 min 0,0 UV-I 21 W/m² 18,2 °C 100 %
20.07.2024 08:00 18,1 °C 95 % 1013,1 hPa 0,4 l/m² 0,0 km/h 0 min 0,0 UV-I 15 W/m² 18,1 °C 100 %
20.07.2024 07:50 18,2 °C 94 % 1013,1 hPa 0,4 l/m² 0,0 km/h 0 min 0,0 UV-I 12 W/m² 18,2 °C 100 %
20.07.2024 07:40 18,1 °C 94 % 1013,1 hPa 0,6 l/m² 0,0 km/h 0 min 0,0 UV-I 8 W/m² 18,1 °C 100 %
20.07.2024 07:30 18,2 °C 94 % 1013,0 hPa 0,6 l/m² 1,6 km/h 0 min 0,0 UV-I 5 W/m² 18,2 °C 100 %
20.07.2024 07:20 18,3 °C 94 % 1013,0 hPa 0,4 l/m² 0,0 km/h 0 min 0,0 UV-I 5 W/m² 18,3 °C 100 %
20.07.2024 07:10 18,4 °C 94 % 1012,9 hPa 0,0 l/m² 0,0 km/h 0 min 0,0 UV-I 0 W/m² 18,4 °C 100 %
20.07.2024 07:00 18,6 °C 94 % 1012,9 hPa 0,2 l/m² 0,0 km/h 0 min 0,0 UV-I 0 W/m² 18,6 °C 100 %
20.07.2024 06:50 18,5 °C 94 % 1012,8 hPa 0,4 l/m² 0,0 km/h 0 min 0,0 UV-I 0 W/m² 18,5 °C 100 %
20.07.2024 06:40 18,5 °C 94 % 1012,9 hPa 0,2 l/m² 0,0 km/h 0 min 0,0 UV-I 0 W/m² 18,5 °C 100 %
20.07.2024 06:30 18,6 °C 93 % 1012,9 hPa 0,2 l/m² 0,0 km/h 0 min 0,0 UV-I 0 W/m² 18,6 °C 100 %
20.07.2024 06:20 18,6 °C 93 % 1012,7 hPa 0,6 l/m² 0,0 km/h 0 min 0,0 UV-I 0 W/m² 18,6 °C 100 %
20.07.2024 06:10 18,6 °C 93 % 1012,7 hPa 1,4 l/m² 0,0 km/h 0 min 0,0 UV-I 0 W/m² 18,6 °C 100 %
20.07.2024 06:00 18,6 °C 93 % 1012,8 hPa 0,4 l/m² 0,0 km/h 0 min 0,0 UV-I 0 W/m² 18,6 °C 100 %
20.07.2024 05:50 18,7 °C 93 % 1012,6 hPa 0,2 l/m² 0,0 km/h 0 min 0,0 UV-I 0 W/m² 18,7 °C 100 %
20.07.2024 05:40 18,8 °C 93 % 1012,5 hPa 0,4 l/m² 0,0 km/h 0 min 0,0 UV-I 0 W/m² 18,8 °C 100 %
20.07.2024 05:30 18,9 °C 93 % 1012,4 hPa 0,0 l/m² 0,0 km/h 0 min 0,0 UV-I 0 W/m² 18,9 °C 100 %
20.07.2024 05:20 19,2 °C 93 % 1012,4 hPa 0,0 l/m² 0,0 km/h 0 min 0,0 UV-I 0 W/m² 19,2 °C 100 %
20.07.2024 05:10 19,3 °C 94 % 1012,4 hPa 0,0 l/m² 0,0 km/h 0 min 0,0 UV-I 0 W/m² 19,3 °C 100 %
20.07.2024 05:00 19,7 °C 94 % 1012,3 hPa 0,2 l/m² 0,0 km/h 0 min 0,0 UV-I 0 W/m² 19,7 °C 100 %
20.07.2024 04:50 19,9 °C 94 % 1012,3 hPa 0,0 l/m² 0,0 km/h 0 min 0,0 UV-I 0 W/m² 19,9 °C 100 %
20.07.2024 04:40 20,2 °C 94 % 1012,5 hPa 0,2 l/m² 0,0 km/h 0 min 0,0 UV-I 0 W/m² 20,2 °C 100 %
20.07.2024 04:30 20,3 °C 94 % 1012,5 hPa 0,8 l/m² 0,0 km/h 0 min 0,0 UV-I 0 W/m² 20,3 °C 100 %
20.07.2024 04:20 20,4 °C 94 % 1012,5 hPa 2,6 l/m² 0,0 km/h 0 min 0,0 UV-I 0 W/m² 20,4 °C 100 %
20.07.2024 04:10 20,6 °C 94 % 1012,5 hPa 3,8 l/m² 0,0 km/h 0 min 0,0 UV-I 0 W/m² 20,6 °C 100 %
20.07.2024 04:00 20,7 °C 94 % 1012,5 hPa 0,6 l/m² 0,0 km/h 0 min 0,0 UV-I 0 W/m² 20,7 °C 100 %
20.07.2024 03:50 20,8 °C 94 % 1012,5 hPa 0,2 l/m² 0,0 km/h 0 min 0,0 UV-I 0 W/m² 20,8 °C 100 %
20.07.2024 03:40 20,9 °C 94 % 1012,6 hPa 0,0 l/m² 0,0 km/h 0 min 0,0 UV-I 0 W/m² 20,9 °C 100 %
20.07.2024 03:30 20,9 °C 94 % 1012,7 hPa 0,0 l/m² 0,0 km/h 0 min 0,0 UV-I 0 W/m² 20,9 °C 100 %
20.07.2024 03:20 21,1 °C 94 % 1012,7 hPa 0,0 l/m² 0,0 km/h 0 min 0,0 UV-I 0 W/m² 21,1 °C 100 %
20.07.2024 03:10 21,2 °C 94 % 1012,7 hPa 0,0 l/m² 0,0 km/h 0 min 0,0 UV-I 0 W/m² 21,2 °C 100 %
20.07.2024 03:00 21,2 °C 94 % 1012,8 hPa 0,0 l/m² 0,0 km/h 0 min 0,0 UV-I 0 W/m² 21,2 °C 100 %
20.07.2024 02:50 21,2 °C 94 % 1012,8 hPa 0,0 l/m² 0,0 km/h 0 min 0,0 UV-I 0 W/m² 21,2 °C 100 %
20.07.2024 02:40 21,3 °C 94 % 1012,8 hPa 0,0 l/m² 0,0 km/h 0 min 0,0 UV-I 0 W/m² 21,3 °C 100 %
20.07.2024 02:30 21,3 °C 94 % 1013,0 hPa 0,0 l/m² 0,0 km/h 0 min 0,0 UV-I 0 W/m² 21,3 °C 100 %
20.07.2024 02:20 21,3 °C 94 % 1013,0 hPa 0,0 l/m² 0,0 km/h 0 min 0,0 UV-I 0 W/m² 21,3 °C 100 %
20.07.2024 02:10 21,3 °C 94 % 1013,1 hPa 0,0 l/m² 0,0 km/h 0 min 0,0 UV-I 0 W/m² 21,3 °C 100 %
20.07.2024 02:00 21,3 °C 94 % 1013,3 hPa 0,0 l/m² 0,0 km/h 0 min 0,0 UV-I 0 W/m² 21,3 °C 100 %
20.07.2024 01:50 21,4 °C 94 % 1013,4 hPa 0,0 l/m² 0,0 km/h 0 min 0,0 UV-I 0 W/m² 21,4 °C 100 %
20.07.2024 01:40 21,4 °C 94 % 1013,5 hPa 0,0 l/m² 0,0 km/h 0 min 0,0 UV-I 0 W/m² 21,4 °C 100 %
20.07.2024 01:30 21,4 °C 94 % 1013,6 hPa 0,0 l/m² 0,0 km/h 0 min 0,0 UV-I 0 W/m² 21,4 °C 100 %
20.07.2024 01:20 21,5 °C 93 % 1013,7 hPa 0,0 l/m² 0,0 km/h 0 min 0,0 UV-I 0 W/m² 21,5 °C 100 %
20.07.2024 01:10 21,5 °C 93 % 1013,8 hPa 0,0 l/m² 0,0 km/h 0 min 0,0 UV-I 0 W/m² 21,5 °C 100 %
20.07.2024 01:00 21,5 °C 93 % 1013,7 hPa 0,0 l/m² 0,0 km/h 0 min 0,0 UV-I 0 W/m² 21,5 °C 100 %
20.07.2024 00:50 21,4 °C 93 % 1013,8 hPa 0,0 l/m² 0,0 km/h 0 min 0,0 UV-I 0 W/m² 21,4 °C 100 %
20.07.2024 00:40 21,4 °C 93 % 1013,7 hPa 0,0 l/m² 0,0 km/h 0 min 0,0 UV-I 0 W/m² 21,4 °C 100 %
20.07.2024 00:30 21,4 °C 93 % 1013,8 hPa 0,0 l/m² 0,0 km/h 0 min 0,0 UV-I 0 W/m² 21,4 °C 100 %
20.07.2024 00:20 21,4 °C 93 % 1013,9 hPa 0,0 l/m² 0,0 km/h 0 min 0,0 UV-I 0 W/m² 21,4 °C 100 %
20.07.2024 00:10 21,5 °C 92 % 1014,1 hPa 0,0 l/m² 0,0 km/h 0 min 0,0 UV-I 0 W/m² 21,5 °C 100 %
20.07.2024 00:00 21,5 °C 92 % 1014,2 hPa 0,0 l/m² 0,0 km/h 0 min 0,0 UV-I 0 W/m² 21,5 °C 100 %
19.07.2024 23:50 21,6 °C 92 % 1014,2 hPa 0,0 l/m² 0,0 km/h 0 min 0,0 UV-I 0 W/m² 21,6 °C 100 %
19.07.2024 23:40 21,7 °C 92 % 1014,3 hPa 0,0 l/m² 0,0 km/h 0 min 0,0 UV-I 0 W/m² 21,7 °C 100 %
19.07.2024 23:30 21,7 °C 92 % 1014,3 hPa 0,0 l/m² 0,0 km/h 0 min 0,0 UV-I 0 W/m² 21,7 °C 100 %
19.07.2024 23:20 21,7 °C 91 % 1014,5 hPa 0,0 l/m² 0,0 km/h 0 min 0,0 UV-I 0 W/m² 21,7 °C 100 %
19.07.2024 23:10 21,7 °C 91 % 1014,6 hPa 0,0 l/m² 0,0 km/h 0 min 0,0 UV-I 0 W/m² 21,7 °C 100 %
19.07.2024 23:00 21,7 °C 90 % 1014,5 hPa 0,0 l/m² 0,0 km/h 0 min 0,0 UV-I 0 W/m² 21,7 °C 100 %
19.07.2024 22:50 21,8 °C 90 % 1014,5 hPa 0,0 l/m² 0,0 km/h 0 min 0,0 UV-I 0 W/m² 21,8 °C 100 %
19.07.2024 22:40 21,9 °C 90 % 1014,6 hPa 0,0 l/m² 0,0 km/h 0 min 0,0 UV-I 0 W/m² 21,9 °C 100 %
19.07.2024 22:30 22,1 °C 90 % 1014,7 hPa 0,0 l/m² 0,0 km/h 0 min 0,0 UV-I 0 W/m² 22,1 °C 100 %
19.07.2024 22:20 22,1 °C 89 % 1014,7 hPa 0,0 l/m² 0,0 km/h 0 min 0,0 UV-I 0 W/m² 22,1 °C 100 %
19.07.2024 22:10 22,1 °C 88 % 1014,5 hPa 0,0 l/m² 0,0 km/h 0 min 0,0 UV-I 0 W/m² 22,1 °C 100 %
19.07.2024 22:00 22,2 °C 88 % 1014,7 hPa 0,0 l/m² 0,0 km/h 0 min 0,0 UV-I 0 W/m² 22,2 °C 100 %
19.07.2024 21:50 22,1 °C 87 % 1014,7 hPa 0,0 l/m² 0,0 km/h 0 min 0,0 UV-I 0 W/m² 22,1 °C 100 %
19.07.2024 21:40 22,2 °C 87 % 1014,7 hPa 0,0 l/m² 0,0 km/h 0 min 0,0 UV-I 0 W/m² 22,2 °C 100 %
19.07.2024 21:30 22,4 °C 87 % 1014,8 hPa 0,0 l/m² 0,0 km/h 0 min 0,0 UV-I 0 W/m² 22,4 °C 100 %
19.07.2024 21:20 22,5 °C 86 % 1014,8 hPa 0,0 l/m² 0,0 km/h 0 min 0,0 UV-I 0 W/m² 22,5 °C 100 %
19.07.2024 21:10 22,7 °C 85 % 1014,6 hPa 0,0 l/m² 0,0 km/h 0 min 0,0 UV-I 0 W/m² 22,7 °C 100 %
19.07.2024 21:00 23,3 °C 82 % 1014,5 hPa 1,2 l/m² 0,3 km/h 0 min 0,0 UV-I 0 W/m² 23,3 °C 99 %
19.07.2024 20:50 24,2 °C 78 % 1014,5 hPa 0,0 l/m² 1,0 km/h 0 min 0,0 UV-I 0 W/m² 24,2 °C 100 %
19.07.2024 20:40 25,4 °C 74 % 1014,6 hPa 0,2 l/m² 0,8 km/h 0 min 0,0 UV-I 0 W/m² 25,4 °C 100 %
19.07.2024 20:30 26,6 °C 72 % 1014,4 hPa 0,2 l/m² 1,5 km/h 0 min 0,0 UV-I 3 W/m² 26,6 °C 100 %
19.07.2024 20:20 27,7 °C 65 % 1014,3 hPa 0,0 l/m² 0,0 km/h 0 min 0,0 UV-I 9 W/m² 27,7 °C 100 %
19.07.2024 20:10 27,8 °C 60 % 1014,1 hPa 0,0 l/m² 0,1 km/h 0 min 0,0 UV-I 15 W/m² 27,8 °C 100 %
19.07.2024 20:00 28,1 °C 59 % 1014,1 hPa 0,0 l/m² 0,0 km/h 0 min 0,0 UV-I 15 W/m² 28,1 °C 99 %
19.07.2024 19:50 28,3 °C 59 % 1014,0 hPa 0,0 l/m² 0,0 km/h 0 min 0,0 UV-I 14 W/m² 28,3 °C 100 %
19.07.2024 19:40 28,5 °C 58 % 1013,9 hPa 0,0 l/m² 0,0 km/h 0 min 0,0 UV-I 20 W/m² 28,5 °C 100 %
19.07.2024 19:30 28,8 °C 58 % 1013,8 hPa 0,0 l/m² 0,0 km/h 0 min 0,0 UV-I 25 W/m² 28,8 °C 100 %
19.07.2024 19:20 29,2 °C 56 % 1013,8 hPa 0,0 l/m² 0,0 km/h 0 min 0,0 UV-I 40 W/m² 29,2 °C 100 %
19.07.2024 19:10 29,6 °C 56 % 1013,7 hPa 0,0 l/m² 0,4 km/h 0 min 0,0 UV-I 64 W/m² 29,6 °C 100 %
19.07.2024 19:00 29,8 °C 55 % 1013,9 hPa 0,0 l/m² 2,5 km/h 10 min 0,0 UV-I 109 W/m² 29,8 °C 100 %
19.07.2024 18:50 30,2 °C 57 % 1013,8 hPa 0,0 l/m² 0,0 km/h 10 min 0,4 UV-I 212 W/m² 30,2 °C 100 %
19.07.2024 18:40 30,1 °C 57 % 1013,7 hPa 0,0 l/m² 0,0 km/h 10 min 0,8 UV-I 239 W/m² 30,1 °C 100 %
19.07.2024 18:30 30,3 °C 56 % 1013,7 hPa 0,0 l/m² 0,0 km/h 0 min 0,9 UV-I 83 W/m² 30,3 °C 100 %
19.07.2024 18:20 30,4 °C 52 % 1013,9 hPa 0,0 l/m² 0,0 km/h 0 min 0,9 UV-I 84 W/m² 30,4 °C 100 %
19.07.2024 18:10 30,4 °C 52 % 1013,9 hPa 0,0 l/m² 0,3 km/h 0 min 1,0 UV-I 92 W/m² 30,4 °C 100 %
19.07.2024 18:00 31,0 °C 50 % 1013,9 hPa 0,0 l/m² 0,3 km/h 10 min 1,1 UV-I 125 W/m² 31,0 °C 100 %
19.07.2024 17:50 31,6 °C 48 % 1014,0 hPa 0,0 l/m² 2,6 km/h 10 min 1,2 UV-I 156 W/m² 31,6 °C 100 %
19.07.2024 17:40 32,1 °C 47 % 1014,0 hPa 0,0 l/m² 2,6 km/h 10 min 1,8 UV-I 473 W/m² 32,1 °C 100 %
19.07.2024 17:30 32,8 °C 45 % 1014,1 hPa 0,0 l/m² 1,5 km/h 10 min 2,2 UV-I 511 W/m² 32,8 °C 99 %
19.07.2024 17:20 32,8 °C 45 % 1014,1 hPa 0,0 l/m² 1,7 km/h 10 min 2,4 UV-I 537 W/m² 32,8 °C 100 %
19.07.2024 17:10 33,3 °C 44 % 1014,2 hPa 0,0 l/m² 1,4 km/h 10 min 2,7 UV-I 547 W/m² 33,3 °C 99 %
19.07.2024 17:00 33,1 °C 45 % 1014,3 hPa 0,0 l/m² 0,7 km/h 10 min 2,8 UV-I 524 W/m² 33,1 °C 100 %
19.07.2024 16:50 33,1 °C 45 % 1014,3 hPa 0,0 l/m² 0,7 km/h 10 min 3,2 UV-I 564 W/m² 33,1 °C 100 %
19.07.2024 16:40 32,9 °C 44 % 1014,6 hPa 0,0 l/m² 0,8 km/h 10 min 3,5 UV-I 575 W/m² 32,9 °C 100 %
19.07.2024 16:30 32,4 °C 47 % 1014,7 hPa 0,0 l/m² 0,5 km/h 10 min 3,8 UV-I 589 W/m² 32,4 °C 100 %
19.07.2024 16:20 32,2 °C 47 % 1014,8 hPa 0,0 l/m² 2,1 km/h 10 min 4,0 UV-I 605 W/m² 32,2 °C 100 %
19.07.2024 16:10 32,0 °C 50 % 1014,9 hPa 0,0 l/m² 0,3 km/h 10 min 4,2 UV-I 606 W/m² 32,0 °C 100 %
19.07.2024 16:00 31,6 °C 46 % 1015,0 hPa 0,0 l/m² 3,0 km/h 10 min 4,6 UV-I 626 W/m² 31,6 °C 100 %
_ Min-Zeit 08:00 17:10 15:30 - 15:30 - - - 08:00 11:30
Minimum _ 18,1 °C 44 % 1011,3 hPa - 0,0 km/h - - - 18,1 °C 97 %
_ Max-Zeit 17:10 09:20 16:00 04:10 16:00 13:50 16:00 16:00 17:10 15:30
Maximum _ 33,4 °C 96 % 1015,0 hPa 3,8 l/m² 3,0 km/h
O-SO
20 min 4,6 UV-I 626 W/m² 33,3 °C 100 %
Durchschnitt _ 23,4 °C 80 % 1013,4 hPa #19,0 l/m² 0,4 km/h #6:20 h 2,4 UV-I 112 W/m² 23,4 °C 100 %